Time;durP1;ratioP1;P1;durP2;ratioP2;P2;SDS_P1;SDS_P2;PMS_P1;PMS_P2;Temp;Humidity;BMP_temperature;BMP_pressure;BME280_temperature;BME280_humidity;BME280_pressure;Samples;Min_cycle;Max_cycle;Signal;HPM_P1;HPM_P2
2022/06/22 00:00:48;;;;;;;1.00;0.40;;;;;;;11.72;83.94;97314.30;104591;1275;62969;-24
2022/06/22 00:03:15;;;;;;;1.10;0.40;;;;;;;11.84;83.66;97321.52;104661;1274;75652;-23
2022/06/22 00:05:47;;;;;;;1.00;0.40;;;;;;;11.75;84.12;97313.50;104620;1271;76963;-23
2022/06/22 00:08:24;;;;;;;0.70;0.40;;;;;;;11.51;84.77;97303.73;104663;1274;75474;-21
2022/06/22 00:10:53;;;;;;;0.50;0.30;;;;;;;11.46;85.55;97309.90;104736;1274;61189;-20
2022/06/22 00:13:25;;;;;;;0.20;0.20;;;;;;;11.51;85.07;97299.86;104828;1274;62111;-20
2022/06/22 00:15:58;;;;;;;0.50;0.30;;;;;;;11.44;85.55;97306.40;104912;1271;76873;-21
2022/06/22 00:18:29;;;;;;;0.30;0.30;;;;;;;11.38;85.98;97301.32;104566;1274;75193;-20
2022/06/22 00:21:02;;;;;;;0.20;0.20;;;;;;;11.49;85.74;97294.46;104645;1271;74138;-20
2022/06/22 00:23:41;;;;;;;0.30;0.30;;;;;;;11.73;84.51;97289.56;104886;1274;63157;-21
2022/06/22 00:26:20;;;;;;;0.30;0.30;;;;;;;11.57;84.86;97284.36;104683;1274;61141;-22
2022/06/22 00:29:20;;;;;;;0.90;0.40;;;;;;;11.39;85.68;97293.20;104655;1274;76566;-21
2022/06/22 00:31:47;;;;;;;0.20;0.20;;;;;;;11.58;85.69;97290.59;104590;1274;76905;-21
2022/06/22 00:34:16;;;;;;;0.30;0.20;;;;;;;11.76;84.03;97274.24;104810;1271;74354;-21
2022/06/22 00:36:47;;;;;;;0.60;0.40;;;;;;;11.65;84.21;97281.77;104650;1274;62235;-21
2022/06/22 00:39:18;;;;;;;1.10;0.40;;;;;;;11.50;85.02;97286.24;104586;1274;63049;-20
2022/06/22 00:41:52;;;;;;;0.30;0.30;;;;;;;11.50;85.32;97285.40;104592;1274;75586;-21
2022/06/22 00:44:19;;;;;;;0.80;0.50;;;;;;;11.70;84.39;97285.21;104595;1276;75738;-21
2022/06/22 00:47:07;;;;;;;0.50;0.50;;;;;;;11.73;84.24;97287.51;104576;1275;75360;-21
2022/06/22 00:49:35;;;;;;;0.40;0.30;;;;;;;11.51;85.47;97281.42;104617;1274;63256;-20
2022/06/22 00:52:05;;;;;;;0.70;0.40;;;;;;;11.36;86.78;97283.96;104775;1272;62833;-20
2022/06/22 00:54:33;;;;;;;1.50;0.30;;;;;;;11.74;85.27;97276.09;104696;1272;75501;-20
2022/06/22 00:57:03;;;;;;;0.30;0.30;;;;;;;11.83;84.70;97277.52;104779;1274;75711;-21
2022/06/22 00:59:40;;;;;;;0.30;0.30;;;;;;;11.55;85.47;97275.98;104736;1274;75626;-20
2022/06/22 01:02:10;;;;;;;1.20;0.40;;;;;;;11.44;86.01;97276.65;104609;1274;61033;-20
2022/06/22 01:04:52;;;;;;;0.50;0.30;;;;;;;11.51;86.20;97265.82;104735;1272;61910;-20
2022/06/22 01:07:37;;;;;;;0.30;0.30;;;;;;;11.55;85.88;97271.98;104802;1271;75510;-20
2022/06/22 01:10:16;;;;;;;0.70;0.50;;;;;;;11.39;86.29;97263.77;104772;1277;77315;-21
2022/06/22 01:13:07;;;;;;;0.40;0.30;;;;;;;11.15;87.86;97273.28;104765;1275;74950;-20
2022/06/22 01:15:37;;;;;;;0.50;0.30;;;;;;;11.43;86.73;97270.85;104628;1272;61911;-20
2022/06/22 01:18:11;;;;;;;0.30;0.30;;;;;;;11.59;85.83;97273.98;104624;1274;62782;-20
2022/06/22 01:20:53;;;;;;;0.30;0.30;;;;;;;11.39;86.60;97274.27;104647;1272;76602;-20
2022/06/22 01:24:05;;;;;;;0.30;0.30;;;;;;;11.23;87.84;97268.39;104854;1271;77172;-20
2022/06/22 01:27:02;;;;;;;0.30;0.20;;;;;;;11.46;86.62;97271.77;104164;1281;73361;-21
2022/06/22 01:29:29;;;;;;;0.30;0.30;;;;;;;11.39;86.64;97272.31;104189;1280;63129;-20
2022/06/22 01:32:02;;;;;;;0.30;0.30;;;;;;;11.22;87.60;97282.04;104475;1274;61811;-20
2022/06/22 01:34:41;;;;;;;0.10;0.10;;;;;;;11.19;88.25;97281.89;104852;1274;75520;-20
2022/06/22 01:37:23;;;;;;;0.40;0.30;;;;;;;11.53;86.61;97278.24;104682;1274;76826;-21
2022/06/22 01:39:51;;;;;;;0.30;0.30;;;;;;;11.51;86.61;97273.15;104724;1274;75432;-20
2022/06/22 01:42:18;;;;;;;0.30;0.30;;;;;;;11.31;87.27;97272.17;104578;1274;63273;-20
2022/06/22 01:45:04;;;;;;;0.80;0.40;;;;;;;11.36;87.67;97262.11;104701;1274;61319;-20
2022/06/22 01:47:40;;;;;;;0.40;0.30;;;;;;;11.56;86.34;97265.62;104642;1275;75497;-21
2022/06/22 01:50:25;;;;;;;0.20;0.20;;;;;;;11.51;86.57;97269.98;104659;1274;77130;-20
2022/06/22 01:53:15;;;;;;;0.20;0.20;;;;;;;11.25;87.92;97281.80;104782;1274;75381;-20
2022/06/22 01:55:50;;;;;;;0.30;0.20;;;;;;;11.27;88.41;97279.80;104796;1274;64648;-21
2022/06/22 01:58:17;;;;;;;0.30;0.30;;;;;;;11.54;87.25;97283.19;104612;1275;63078;-21
2022/06/22 02:01:04;;;;;;;0.90;0.40;;;;;;;11.50;87.61;97289.34;104733;1274;75487;-21
2022/06/22 02:03:37;;;;;;;0.20;0.20;;;;;;;11.28;88.43;97291.84;104632;1274;77002;-20
2022/06/22 02:08:59;;;;;;;0.30;0.30;;;;;;;11.65;87.01;97283.17;104613;1271;63181;-21
2022/06/22 02:11:27;;;;;;;0.30;0.30;;;;;;;11.52;87.51;97285.73;104581;1274;61596;-21
2022/06/22 02:13:58;;;;;;;0.60;0.30;;;;;;;11.35;88.68;97294.48;104721;1272;75364;-21
2022/06/22 02:16:26;;;;;;;0.20;0.20;;;;;;;11.41;88.95;97308.42;104624;1274;75213;-22
2022/06/22 02:18:56;;;;;;;0.20;0.20;;;;;;;11.62;88.01;97318.77;104618;1274;75417;-21
2022/06/22 02:21:45;;;;;;;0.60;0.30;;;;;;;11.59;88.44;97330.05;104744;1272;63114;-21
2022/06/22 02:24:12;;;;;;;0.30;0.30;;;;;;;11.55;88.65;97327.60;104688;1274;61809;-22
2022/06/22 02:26:48;;;;;;;0.30;0.20;;;;;;;11.47;89.43;97327.10;104761;1272;76082;-22
2022/06/22 02:29:17;;;;;;;0.30;0.30;;;;;;;11.80;87.63;97320.89;104672;1274;76005;-22
2022/06/22 02:31:44;;;;;;;0.40;0.30;;;;;;;11.94;86.52;97329.22;104718;1271;75135;-21
2022/06/22 02:34:12;;;;;;;1.20;0.30;;;;;;;11.69;86.50;97334.34;104679;1275;62793;-21
2022/06/22 02:36:41;;;;;;;0.20;0.20;;;;;;;11.41;87.90;97353.94;104642;1271;61986;-21
2022/06/22 02:39:10;;;;;;;0.10;0.10;;;;;;;11.50;87.81;97350.52;104618;1274;76612;-21
2022/06/22 02:44:30;;;;;;;0.50;0.20;;;;;;;11.65;86.07;97363.48;104680;1271;74315;-21
2022/06/22 02:47:09;;;;;;;0.90;0.20;;;;;;;11.42;86.72;97363.41;104567;1274;61807;-21
2022/06/22 02:49:39;;;;;;;0.20;0.20;;;;;;;11.23;87.33;97361.89;104824;1271;61321;-21
2022/06/22 02:52:07;;;;;;;0.30;0.30;;;;;;;11.51;85.97;97361.15;104592;1274;76619;-21
2022/06/22 02:54:36;;;;;;;0.30;0.30;;;;;;;11.61;84.82;97365.96;104743;1271;76714;-21
2022/06/22 02:57:17;;;;;;;0.20;0.20;;;;;;;11.46;84.82;97372.41;104626;1275;75458;-21
2022/06/22 02:59:44;;;;;;;1.10;0.20;;;;;;;11.24;85.76;97375.83;104552;1274;61996;-21
2022/06/22 03:02:11;;;;;;;0.20;0.20;;;;;;;11.08;86.64;97382.43;104627;1274;62691;-21
2022/06/22 03:04:40;;;;;;;1.00;0.30;;;;;;;11.30;85.49;97379.15;104646;1274;76661;-21
2022/06/22 03:07:07;;;;;;;0.30;0.30;;;;;;;11.57;84.17;97382.78;104613;1271;77006;-21
2022/06/22 03:09:34;;;;;;;3.00;0.30;;;;;;;11.42;83.96;97388.08;104676;1271;75179;-22
2022/06/22 03:12:02;;;;;;;1.10;0.40;;;;;;;11.18;84.45;97396.86;104678;1274;62058;-22
2022/06/22 03:14:35;;;;;;;0.20;0.20;;;;;;;10.99;85.41;97401.79;104863;1274;63017;-22
2022/06/22 03:17:04;;;;;;;0.40;0.30;;;;;;;11.31;84.28;97413.25;104638;1271;76737;-23
2022/06/22 03:19:40;;;;;;;1.00;0.30;;;;;;;11.39;83.16;97415.27;104738;1274;75927;-22
2022/06/22 03:22:19;;;;;;;0.40;0.40;;;;;;;11.27;83.74;97416.35;104660;1274;74733;-22
2022/06/22 03:25:05;;;;;;;1.50;0.60;;;;;;;11.22;84.39;97413.42;104639;1275;61120;-23
2022/06/22 03:27:39;;;;;;;0.30;0.30;;;;;;;11.45;84.34;97406.98;104666;1274;63263;-23
2022/06/22 03:30:21;;;;;;;0.30;0.30;;;;;;;12.07;81.00;97395.97;104410;1274;75601;-23
2022/06/22 03:32:52;;;;;;;0.40;0.30;;;;;;;12.45;78.59;97406.50;104485;1275;77034;-23
2022/06/22 03:35:37;;;;;;;0.40;0.40;;;;;;;12.35;78.11;97412.53;104615;1274;75089;-23
2022/06/22 03:38:33;;;;;;;2.60;0.50;;;;;;;12.19;79.50;97415.70;104644;1272;63195;-23
2022/06/22 03:41:15;;;;;;;0.30;0.30;;;;;;;11.89;80.30;97421.86;104639;1274;63248;-23
2022/06/22 03:43:45;;;;;;;0.50;0.30;;;;;;;11.73;80.91;97428.15;104669;1274;74710;-24
2022/06/22 03:46:20;;;;;;;0.40;0.30;;;;;;;11.95;79.39;97430.20;104658;1274;77345;-25
2022/06/22 03:48:56;;;;;;;0.40;0.40;;;;;;;12.11;79.12;97433.10;104515;1275;75631;-24
2022/06/22 03:52:02;;;;;;;0.30;0.30;;;;;;;12.12;78.98;97427.95;104644;1274;63180;-24
2022/06/22 03:54:51;;;;;;;0.40;0.30;;;;;;;12.10;79.73;97427.80;104553;1274;62766;-25
2022/06/22 03:57:21;;;;;;;0.60;0.40;;;;;;;12.02;79.80;97430.78;104633;1274;76600;-25
2022/06/22 03:59:48;;;;;;;0.20;0.20;;;;;;;12.14;79.36;97438.85;104705;1274;75871;-24
2022/06/22 04:02:17;;;;;;;0.50;0.40;;;;;;;12.37;78.78;97435.38;104647;1274;75485;-25
2022/06/22 04:04:44;;;;;;;0.80;0.30;;;;;;;12.19;79.72;97436.80;104758;1274;62954;-25
2022/06/22 04:07:13;;;;;;;0.50;0.50;;;;;;;11.84;80.45;97437.84;104648;1274;62765;-25
2022/06/22 04:09:44;;;;;;;1.20;0.30;;;;;;;11.50;82.13;97445.09;104624;1274;76021;-25
2022/06/22 04:12:39;;;;;;;0.30;0.20;;;;;;;11.40;81.98;97446.67;104636;1274;76697;-25
2022/06/22 04:15:09;;;;;;;0.60;0.30;;;;;;;11.70;81.09;97448.83;104587;1274;75422;-25
2022/06/22 04:17:39;;;;;;;0.50;0.50;;;;;;;11.95;80.24;97452.80;104692;1274;61706;-25
2022/06/22 04:20:21;;;;;;;1.00;0.40;;;;;;;11.65;80.25;97458.05;104666;1274;62985;-25
2022/06/22 04:22:54;;;;;;;0.60;0.50;;;;;;;11.43;81.03;97460.20;104643;1274;76521;-25
2022/06/22 04:25:29;;;;;;;1.20;0.60;;;;;;;11.25;81.73;97466.20;104734;1274;77257;-25
2022/06/22 04:27:56;;;;;;;0.70;0.50;;;;;;;11.19;82.06;97472.36;104603;1274;74743;-25
2022/06/22 04:30:35;;;;;;;0.70;0.50;;;;;;;11.65;80.63;97474.70;104657;1274;62144;-25
2022/06/22 04:33:18;;;;;;;2.30;0.50;;;;;;;11.78;78.89;97476.95;104767;1274;62862;-24
2022/06/22 04:35:54;;;;;;;0.50;0.50;;;;;;;11.67;79.29;97479.88;104678;1274;76607;-25
2022/06/22 04:38:46;;;;;;;0.70;0.50;;;;;;;11.43;80.11;97468.45;104622;1275;76946;-25
2022/06/22 04:41:32;;;;;;;0.90;0.40;;;;;;;11.17;80.99;97466.38;104595;1274;75251;-26
2022/06/22 04:44:03;;;;;;;1.10;0.60;;;;;;;11.25;82.16;97476.45;104642;1274;64711;-25
2022/06/22 04:46:32;;;;;;;0.50;0.50;;;;;;;11.69;80.30;97474.42;104620;1275;62748;-26
2022/06/22 04:49:03;;;;;;;1.20;0.60;;;;;;;12.16;79.80;97468.69;104364;1274;76603;-26
2022/06/22 04:51:34;;;;;;;0.90;0.60;;;;;;;12.30;79.36;97460.17;104557;1277;76745;-26
2022/06/22 04:54:10;;;;;;;0.50;0.50;;;;;;;12.15;79.38;97455.02;104618;1274;75150;-26
2022/06/22 04:56:38;;;;;;;0.60;0.50;;;;;;;11.79;80.03;97463.77;104642;1273;62547;-26
2022/06/22 04:59:07;;;;;;;1.40;0.40;;;;;;;11.70;80.78;97473.44;104571;1275;62857;-26
2022/06/22 05:01:50;;;;;;;0.40;0.40;;;;;;;12.14;79.27;97478.12;104757;1274;76739;-26
2022/06/22 05:04:21;;;;;;;2.10;0.50;;;;;;;12.46;77.89;97484.09;104670;1274;76722;-26
2022/06/22 05:06:48;;;;;;;1.00;0.40;;;;;;;12.38;78.17;97482.42;104490;1274;75535;-26
2022/06/22 05:09:21;;;;;;;0.80;0.40;;;;;;;12.26;77.54;97481.14;104693;1274;62851;-26
2022/06/22 05:11:49;;;;;;;0.60;0.40;;;;;;;12.11;78.60;97478.38;104615;1274;61393;-26
2022/06/22 05:14:19;;;;;;;0.40;0.30;;;;;;;12.05;79.44;97482.30;104668;1274;76549;-26
2022/06/22 05:16:59;;;;;;;0.70;0.40;;;;;;;12.32;77.95;97483.28;104680;1271;75782;-25
2022/06/22 05:19:39;;;;;;;0.40;0.40;;;;;;;12.50;76.28;97484.45;104567;1274;74412;-25
2022/06/22 05:22:14;;;;;;;1.50;0.40;;;;;;;12.44;77.06;97492.23;104662;1274;62200;-25
2022/06/22 05:24:44;;;;;;;0.40;0.40;;;;;;;12.29;78.15;97490.07;104865;1274;62789;-24
2022/06/22 05:27:14;;;;;;;1.00;0.50;;;;;;;11.93;78.90;97492.30;104587;1275;74721;-24
2022/06/22 05:29:50;;;;;;;0.50;0.30;;;;;;;11.76;80.39;97490.33;104609;1275;76038;-24
2022/06/22 05:32:20;;;;;;;0.80;0.40;;;;;;;11.94;80.12;97488.25;104642;1274;75428;-25
2022/06/22 05:34:49;;;;;;;2.80;0.50;;;;;;;12.32;79.30;97490.63;104582;1274;62204;-24
2022/06/22 05:37:24;;;;;;;0.70;0.40;;;;;;;12.32;79.94;97493.21;104987;1274;61749;-24
2022/06/22 05:39:52;;;;;;;0.50;0.50;;;;;;;12.16;80.50;97496.09;104783;1274;76382;-24
2022/06/22 05:42:19;;;;;;;0.40;0.40;;;;;;;11.82;81.92;97495.73;104975;1274;77370;-24
2022/06/22 05:44:46;;;;;;;0.40;0.40;;;;;;;11.67;83.08;97497.41;104696;1274;74075;-25
2022/06/22 05:47:31;;;;;;;0.30;0.30;;;;;;;12.03;82.72;97494.81;104584;1271;63011;-24
2022/06/22 05:50:19;;;;;;;1.90;0.40;;;;;;;12.37;81.31;97486.16;104735;1274;63121;-24
2022/06/22 05:52:58;;;;;;;0.70;0.60;;;;;;;12.25;81.92;97482.52;104938;1271;75274;-24
2022/06/22 05:55:32;;;;;;;0.70;0.40;;;;;;;11.98;83.30;97477.63;104702;1271;77023;-24
2022/06/22 05:58:01;;;;;;;;;;;;;;;11.78;84.29;97480.93;104699;1274;74245;-24
2022/06/22 06:00:42;;;;;;;0.20;0.20;;;;;;;12.05;83.80;97484.08;104705;1274;63091;-24
2022/06/22 06:03:49;;;;;;;0.90;0.30;;;;;;;12.33;82.42;97488.05;104794;1274;61576;-24
2022/06/22 06:06:21;;;;;;;0.40;0.40;;;;;;;12.16;83.23;97486.86;104467;1280;75272;-25
2022/06/22 06:08:56;;;;;;;0.80;0.50;;;;;;;12.00;84.78;97489.13;104173;1281;76991;-24
2022/06/22 06:11:26;;;;;;;0.50;0.20;;;;;;;11.85;85.65;97483.44;104430;1281;73245;-24
2022/06/22 06:14:01;;;;;;;0.30;0.30;;;;;;;12.29;84.63;97472.14;104451;1280;62982;-23
2022/06/22 06:16:37;;;;;;;0.40;0.30;;;;;;;12.50;83.52;97475.91;104241;1280;62773;-23
2022/06/22 06:19:05;;;;;;;4.00;0.40;;;;;;;12.50;84.09;97478.11;103885;1280;75705;-23
2022/06/22 06:21:34;;;;;;;0.30;0.30;;;;;;;12.35;84.90;97476.99;104000;1279;75610;-23
2022/06/22 06:24:21;;;;;;;0.30;0.30;;;;;;;12.18;86.03;97476.14;104244;1281;75234;-23
2022/06/22 06:29:39;;;;;;;2.90;0.40;;;;;;;12.70;84.19;97474.33;104408;1281;63073;-23
2022/06/22 06:32:32;;;;;;;1.30;0.60;;;;;;;12.66;85.15;97471.42;104426;1281;74437;-23
2022/06/22 06:35:24;;;;;;;0.30;0.30;;;;;;;12.45;85.75;97479.37;104354;1281;77025;-23
2022/06/22 06:38:10;;;;;;;0.30;0.30;;;;;;;12.67;85.32;97476.19;104157;1280;75443;-23
2022/06/22 06:41:01;;;;;;;0.30;0.30;;;;;;;13.01;84.21;97479.65;104396;1277;61137;-23
2022/06/22 06:43:39;;;;;;;0.50;0.30;;;;;;;12.96;83.85;97484.59;104911;1274;63190;-23
2022/06/22 06:46:32;;;;;;;2.30;0.30;;;;;;;12.68;85.23;97486.16;104598;1274;76804;-23
2022/06/22 06:49:10;;;;;;;0.40;0.30;;;;;;;12.56;86.10;97477.81;104539;1272;77441;-22
2022/06/22 06:51:40;;;;;;;0.30;0.30;;;;;;;12.98;85.71;97486.60;104585;1272;75772;-22
2022/06/22 06:54:20;;;;;;;0.30;0.30;;;;;;;13.07;85.45;97477.92;104610;1272;61900;-22
2022/06/22 06:57:32;;;;;;;0.30;0.30;;;;;;;12.77;86.51;97472.95;104628;1271;63022;-22
2022/06/22 07:00:03;;;;;;;0.40;0.30;;;;;;;12.64;87.80;97473.69;104606;1274;75614;-22
2022/06/22 07:02:32;;;;;;;0.40;0.30;;;;;;;13.04;85.93;97471.65;104717;1272;74751;-22
2022/06/22 07:05:01;;;;;;;0.30;0.30;;;;;;;12.98;85.37;97482.36;104622;1271;75463;-23
2022/06/22 07:07:39;;;;;;;0.30;0.30;;;;;;;12.77;85.72;97483.20;104360;1274;61775;-23
2022/06/22 07:10:17;;;;;;;0.30;0.30;;;;;;;12.58;87.05;97491.54;104564;1274;62127;-23
2022/06/22 07:12:49;;;;;;;0.20;0.20;;;;;;;12.73;86.70;97498.52;104648;1272;76579;-23
2022/06/22 07:15:21;;;;;;;0.20;0.20;;;;;;;12.86;85.38;97494.79;104628;1272;76826;-23
2022/06/22 07:17:50;;;;;;;0.90;0.30;;;;;;;12.87;85.63;97493.20;104335;1271;75810;-22
2022/06/22 07:20:23;;;;;;;0.40;0.30;;;;;;;12.67;86.57;97483.70;104663;1274;61988;-22
2022/06/22 07:22:52;;;;;;;0.20;0.20;;;;;;;12.66;87.22;97476.61;104609;1271;62932;-22
2022/06/22 07:25:29;;;;;;;0.40;0.40;;;;;;;13.05;85.63;97473.08;104656;1274;75264;-22
2022/06/22 07:28:22;;;;;;;1.20;0.30;;;;;;;13.18;84.79;97475.95;104626;1274;77023;-22
2022/06/22 07:30:58;;;;;;;1.70;0.30;;;;;;;13.10;85.41;97478.57;104663;1271;74475;-22
2022/06/22 07:34:11;;;;;;;0.50;0.40;;;;;;;12.79;87.36;97481.41;104771;1274;63139;-22
2022/06/22 07:36:51;;;;;;;0.30;0.30;;;;;;;13.02;86.74;97470.19;104851;1274;62067;-22
2022/06/22 07:39:22;;;;;;;0.40;0.40;;;;;;;13.15;86.18;97463.23;104690;1274;76243;-22
2022/06/22 07:41:51;;;;;;;;;;;;;;;13.00;86.44;97459.90;104645;1274;75956;-22
2022/06/22 07:44:24;;;;;;;2.70;0.40;;;;;;;12.79;87.62;97466.15;105086;1273;75092;-22
2022/06/22 07:47:05;;;;;;;0.50;0.50;;;;;;;13.00;86.91;97464.02;104687;1274;63131;-21
2022/06/22 07:49:39;;;;;;;0.50;0.40;;;;;;;13.13;86.22;97473.71;104665;1274;62813;-21
2022/06/22 07:52:09;;;;;;;0.50;0.50;;;;;;;13.11;86.91;97477.23;104643;1271;75351;-22
2022/06/22 07:54:36;;;;;;;0.80;0.50;;;;;;;13.00;87.59;97480.60;104422;1274;76860;-21
2022/06/22 07:57:12;;;;;;;1.40;0.50;;;;;;;13.17;87.21;97485.59;104573;1271;75424;-22
2022/06/22 07:59:49;;;;;;;1.70;0.60;;;;;;;13.29;86.00;97479.66;104711;1274;61130;-22
2022/06/22 08:02:19;;;;;;;1.40;0.70;;;;;;;13.17;86.34;97478.79;104643;1271;61920;-22
2022/06/22 08:05:10;;;;;;;0.50;0.40;;;;;;;12.84;88.08;97462.53;104632;1272;76213;-22
2022/06/22 08:07:45;;;;;;;1.90;0.80;;;;;;;12.88;89.02;97481.16;104631;1274;75082;-23
2022/06/22 08:10:12;;;;;;;;;;;;;;;13.05;87.28;97479.08;104796;1272;73840;-23
2022/06/22 08:12:52;;;;;;;0.90;0.70;;;;;;;13.14;87.03;97479.84;105069;1272;61233;-23
2022/06/22 08:15:19;;;;;;;1.00;0.80;;;;;;;12.93;87.69;97486.26;105074;1272;63477;-22
2022/06/22 08:17:49;;;;;;;1.00;0.70;;;;;;;12.97;87.51;97481.80;104909;1274;76551;-22
2022/06/22 08:20:19;;;;;;;2.10;0.90;;;;;;;13.22;87.13;97498.64;104854;1274;76982;-22
2022/06/22 08:22:48;;;;;;;1.80;0.90;;;;;;;13.14;86.44;97482.27;104383;1275;75575;-22
2022/06/22 08:25:20;;;;;;;2.80;0.80;;;;;;;13.03;87.18;97496.61;104687;1274;63053;-22
2022/06/22 08:27:48;;;;;;;2.20;1.00;;;;;;;13.27;86.92;97503.07;104798;1271;62949;-22
2022/06/22 08:30:15;;;;;;;1.90;0.90;;;;;;;13.27;86.51;97502.24;104714;1271;76574;-22
2022/06/22 08:33:03;;;;;;;2.20;1.20;;;;;;;13.34;86.82;97503.84;104743;1274;76958;-22
2022/06/22 08:35:34;;;;;;;2.70;1.70;;;;;;;13.14;87.18;97497.94;104355;1274;74101;-22
2022/06/22 08:38:17;;;;;;;1.30;0.90;;;;;;;13.30;86.30;97502.96;104557;1275;62845;-22
2022/06/22 08:41:23;;;;;;;3.70;1.10;;;;;;;13.40;85.51;97505.54;104703;1271;63102;-22
2022/06/22 08:44:01;;;;;;;1.30;1.10;;;;;;;13.35;86.14;97511.23;104294;1272;75641;-22
2022/06/22 08:47:04;;;;;;;5.30;1.00;;;;;;;13.35;86.43;97503.13;104638;1274;77084;-22
2022/06/22 08:49:39;;;;;;;2.40;1.10;;;;;;;13.55;84.64;97496.16;104617;1271;75343;-22
2022/06/22 08:52:09;;;;;;;2.00;1.00;;;;;;;13.56;84.59;97519.42;104697;1271;63341;-22
2022/06/22 08:55:04;;;;;;;1.30;1.10;;;;;;;13.47;84.73;97501.02;104807;1274;62902;-22
2022/06/22 08:57:49;;;;;;;6.20;1.00;;;;;;;13.56;84.48;97507.24;105070;1274;76758;-22
2022/06/22 09:00:44;;;;;;;1.00;0.90;;;;;;;13.91;83.69;97524.00;104608;1274;75786;-22
2022/06/22 09:03:26;;;;;;;1.10;1.00;;;;;;;14.02;83.80;97536.19;104898;1274;75401;-22
2022/06/22 09:06:23;;;;;;;1.90;1.00;;;;;;;13.93;83.59;97540.69;104779;1274;61906;-23
2022/06/22 09:09:15;;;;;;;1.10;1.00;;;;;;;14.04;83.38;97539.42;104464;1271;62803;-23
2022/06/22 09:12:14;;;;;;;2.60;2.40;;;;;;;14.13;82.26;97544.81;104632;1272;75589;-23
2022/06/22 09:15:11;;;;;;;4.00;1.80;;;;;;;13.99;82.25;97554.67;104727;1274;75675;-23
2022/06/22 09:17:50;;;;;;;1.00;0.90;;;;;;;13.70;82.40;97539.80;104693;1274;75611;-24
2022/06/22 09:20:23;;;;;;;1.80;1.00;;;;;;;13.89;83.03;97563.83;104696;1272;61706;-24
2022/06/22 09:22:54;;;;;;;2.70;1.10;;;;;;;14.10;81.79;97568.73;104645;1274;62059;-25
2022/06/22 09:25:47;;;;;;;3.50;1.10;;;;;;;14.13;82.03;97575.50;104626;1274;76597;-24
2022/06/22 09:28:23;;;;;;;1.10;0.90;;;;;;;13.90;82.73;97574.84;104714;1274;74413;-24
2022/06/22 09:31:09;;;;;;;2.70;1.10;;;;;;;13.84;83.17;97575.30;104617;1273;74306;-24
2022/06/22 09:34:08;;;;;;;1.10;1.00;;;;;;;14.17;81.84;97574.69;104583;1274;63033;-23
2022/06/22 09:36:44;;;;;;;2.90;1.10;;;;;;;13.94;81.80;97571.36;104737;1274;61875;-23
2022/06/22 09:39:27;;;;;;;2.50;1.00;;;;;;;13.85;82.90;97587.20;104077;1274;677472;-24
2022/06/22 09:42:16;;;;;;;1.40;1.10;;;;;;;13.83;82.66;97582.39;104638;1274;77351;-23
2022/06/22 09:44:53;;;;;;;1.00;0.90;;;;;;;14.04;81.48;97585.84;104587;1274;74400;-24
2022/06/22 09:47:39;;;;;;;1.30;1.10;;;;;;;14.12;81.77;97608.98;104627;1274;61899;-23
2022/06/22 09:50:26;;;;;;;3.20;1.20;;;;;;;14.06;82.39;97611.77;104784;1274;62790;-23
2022/06/22 09:53:16;;;;;;;5.30;1.30;;;;;;;14.04;82.21;97603.42;104781;1274;76722;-23
2022/06/22 09:56:22;;;;;;;2.70;2.00;;;;;;;14.31;80.47;97608.08;104782;1274;77053;-23
2022/06/22 09:59:09;;;;;;;1.60;1.20;;;;;;;14.31;80.88;97615.81;104933;1274;75466;-23
2022/06/22 10:01:42;;;;;;;1.50;1.20;;;;;;;14.16;81.71;97612.17;104725;1274;63072;-23
2022/06/22 10:04:28;;;;;;;1.30;1.20;;;;;;;14.15;81.90;97612.20;104739;1274;63070;-23
2022/06/22 10:07:18;;;;;;;1.30;1.20;;;;;;;14.23;80.56;97611.42;104633;1274;76640;-23
2022/06/22 10:09:54;;;;;;;2.00;1.20;;;;;;;14.29;80.42;97622.95;104632;1274;77078;-23
2022/06/22 10:13:03;;;;;;;1.70;1.40;;;;;;;14.13;82.41;97625.71;104611;1274;74373;-23
2022/06/22 10:15:42;;;;;;;3.10;1.60;;;;;;;14.02;82.30;97623.56;104597;1274;64932;-23
2022/06/22 10:18:34;;;;;;;1.60;1.30;;;;;;;14.41;80.94;97635.53;104647;1274;63036;-23
2022/06/22 10:21:04;;;;;;;5.90;1.60;;;;;;;14.33;81.15;97643.86;104731;1274;75518;-23
2022/06/22 10:24:01;;;;;;;1.80;1.60;;;;;;;14.06;82.37;97650.17;104591;1274;75917;-23
2022/06/22 10:27:02;;;;;;;1.50;1.10;;;;;;;13.93;83.69;97666.47;104537;1273;74145;-22
2022/06/22 10:30:04;;;;;;;1.40;1.20;;;;;;;14.19;83.10;97667.94;104555;1274;61968;-22
2022/06/22 10:33:05;;;;;;;5.40;1.60;;;;;;;14.10;83.14;97680.39;104649;1274;62807;-23
2022/06/22 10:36:09;;;;;;;1.80;1.30;;;;;;;13.87;84.36;97690.79;104236;1274;75545;-22
2022/06/22 10:38:39;;;;;;;3.20;1.40;;;;;;;13.99;84.45;97690.92;104635;1273;76855;-22
2022/06/22 10:47:29;;;;;;;3.20;1.90;;;;;;;14.20;84.00;97695.26;104740;1273;62042;-22
2022/06/22 10:50:03;;;;;;;2.10;1.30;;;;;;;14.30;84.02;97708.40;104722;1274;77004;-23
2022/06/22 10:52:53;;;;;;;2.60;1.60;;;;;;;14.64;82.30;97710.33;104770;1274;77273;-23
2022/06/22 10:55:23;;;;;;;2.10;1.40;;;;;;;14.80;81.91;97710.23;104577;1274;75503;-23
2022/06/22 10:58:03;;;;;;;4.40;2.50;;;;;;;14.72;81.86;97714.59;104612;1274;63292;-22
2022/06/22 11:01:01;;;;;;;2.30;1.30;;;;;;;14.59;82.31;97718.35;104640;1274;63032;-23
2022/06/22 11:04:00;;;;;;;1.50;1.30;;;;;;;14.74;80.92;97715.23;104783;1274;76355;-23
2022/06/22 11:07:04;;;;;;;2.20;1.40;;;;;;;15.15;80.53;97721.30;101738;1309;600428;-24
2022/06/22 11:09:40;;;;;;;1.70;1.40;;;;;;;14.82;80.14;97717.17;103943;1284;62863;-23
2022/06/22 11:12:16;;;;;;;7.60;1.60;;;;;;;14.79;81.66;97719.77;103920;1287;61061;-24
2022/06/22 11:14:49;;;;;;;3.80;1.10;;;;;;;14.89;81.57;97721.16;103899;1287;74984;-24
2022/06/22 11:17:23;;;;;;;1.30;1.10;;;;;;;15.32;79.08;97729.27;103896;1287;77269;-24
2022/06/22 11:19:56;;;;;;;;;;;;;;;15.37;77.29;97721.85;104490;1277;307432;-25
2022/06/22 11:22:56;;;;;;;2.30;1.20;;;;;;;15.02;78.56;97739.55;104694;1274;61920;-25
2022/06/22 11:31:42;;;;;;;1.90;1.40;;;;;;;14.73;78.06;97746.05;104644;1277;76697;-26
2022/06/22 11:34:48;;;;;;;2.30;1.30;;;;;;;14.77;76.63;97745.38;104565;1274;75399;-25
2022/06/22 11:37:42;;;;;;;2.00;1.30;;;;;;;14.68;75.39;97741.32;104502;1274;61196;-24
2022/06/22 11:40:32;;;;;;;1.10;1.00;;;;;;;14.47;76.73;97745.88;104345;1278;61750;-25
2022/06/22 11:43:22;;;;;;;1.00;0.90;;;;;;;14.36;77.47;97742.44;104474;1278;75519;-26
2022/06/22 11:45:56;;;;;;;1.70;1.10;;;;;;;14.78;76.88;97744.02;104709;1274;76712;-27
2022/06/22 11:48:58;;;;;;;1.40;1.10;;;;;;;15.13;76.21;97751.73;104539;1278;75405;-26
2022/06/22 11:51:47;;;;;;;3.70;1.40;;;;;;;14.85;76.15;97752.58;104560;1280;63112;-27
2022/06/22 11:54:36;;;;;;;1.70;1.10;;;;;;;14.68;76.37;97754.77;104668;1277;62981;-26
2022/06/22 11:57:14;;;;;;;1.10;0.90;;;;;;;14.55;76.68;97769.06;104645;1278;74772;-26
2022/06/22 12:00:09;;;;;;;2.70;1.10;;;;;;;14.67;76.66;97771.48;104571;1280;77039;-26
2022/06/22 12:03:04;;;;;;;5.90;1.20;;;;;;;15.13;76.00;97775.69;104576;1278;75698;-27
2022/06/22 12:05:45;;;;;;;2.80;1.20;;;;;;;15.01;75.04;97774.27;104580;1277;62816;-27
2022/06/22 12:08:22;;;;;;;5.40;2.10;;;;;;;14.78;76.13;97779.30;104616;1277;62670;-25
2022/06/22 12:11:14;;;;;;;2.80;1.20;;;;;;;14.64;77.49;97784.21;104664;1277;74448;-24
2022/06/22 12:15:04;;;;;;;2.50;1.10;;;;;;;14.54;78.61;97783.08;104711;1277;77130;-25
2022/06/22 12:16:41;;;;;;;3.40;1.20;;;;;;;14.85;77.27;97788.06;104634;1277;74064;-24
2022/06/22 12:19:30;;;;;;;2.50;1.20;;;;;;;15.00;77.42;97791.12;104583;1277;62259;-23
2022/06/22 12:22:04;;;;;;;2.70;1.40;;;;;;;14.87;77.90;97800.02;104592;1278;61716;-23
2022/06/22 12:24:37;;;;;;;3.20;1.10;;;;;;;14.59;78.03;97798.63;104623;1278;75025;-24
2022/06/22 12:27:14;;;;;;;1.10;1.00;;;;;;;14.57;78.51;97803.35;104464;1277;76055;-23
2022/06/22 12:29:41;;;;;;;1.00;0.90;;;;;;;14.96;76.44;97805.47;104605;1277;74197;-24
2022/06/22 12:32:17;;;;;;;1.40;1.20;;;;;;;14.94;76.78;97810.05;104654;1278;62074;-22
2022/06/22 12:34:48;;;;;;;1.40;1.10;;;;;;;14.86;77.57;97816.92;104528;1278;63065;-24
2022/06/22 12:37:21;;;;;;;2.50;1.10;;;;;;;14.70;78.65;97810.10;104688;1277;75909;-24
2022/06/22 12:39:52;;;;;;;1.40;1.10;;;;;;;14.56;78.86;97812.23;104604;1278;76068;-22